Decoded Metar for UWGG (NIZHNY NOVGOROD in RUSSIA) (IATA:N/A) | Meteo·Mobile Aviation Weather
aviador You're here:

UWGG Decoded Metar

NIZHNY NOVGOROD in RUSSIA
Report Time2018-12-16 11:00:00
UTC Time2018-12-16 11:18:03
Flight Rules vfr VFR
Wind280° at 6 kt
W.Decomp.*RWY 18: 0.1 kt HW 6.0 kt RCW
W.Rank280° ranks 12
Current wind is above 280° avg. (5.6)
Visibility9999 m
Phenomena:N/A
Clouds:Few 030 Hf
Expected CloudBase > 800 ft AGL from Temp-Dew spread
CeilingNone
Temp-13°C (ISA -28)
Dew Point-15°C (85% RH)
AAT-18.5°C
QNH1038 hPa
Density Alt-4,055 ft
Elevation240 ft
Report Wrong Elevation
Raw Report
UWGG 161100Z 28003MPS 9999 FEW030 M13/M15 Q1038 R36R/490145
NOSIG=

Extra information for UWGG:More info

Metar Taf Metar & Taf Last 4 Metars F.Rules Stats Wind Profile Meteogram Temp Stats Airport Information Weather charts Add Link Nearby VenuesMetar ALERT Operation Metar Decoded Social comments